Página principal
METAR-TAF:

METAR-TAF

Aeroportos :

Lisboa, Portugal

Aeroporto Humberto Delgado

latitude: 38-46N, longitude: 009-08W, altura: 114 m

Observação actual do tempo

O boletim foi feito há 32 minutos, às 13:00 UTC
Vento 10 kt de es-nordeste
Temperatura 17°C
Humidade 39%
Pressão 1011 hPa
Visibilidade 10 km ou mais
sem nuvens abaixo de 1500 metros e sem cumulonimbus

METAR: LPPT 211300Z 07010KT CAVOK 17/03 Q1011

Hora: 13:32 (13:32 UTC)

Previsão

O boletim foi feito há 26 horas e 32 minutos, às 11:00 UTC
Previsão válida de 20 às 12 UTC a 21 às 18 UTC
Vento 8 kt de nordeste
Visibilidade 10 km ou mais
sem nuvens abaixo de 1500 metros e sem cumulonimbus
Tornando-se
de 20 às 15 UTC a 20 às 17 UTC
Vento 12 kt de norte
Tornando-se
de 21 às 01 UTC a 21 às 04 UTC
Vento 10 kt de nordeste
Tornando-se
de 21 às 14 UTC a 21 às 16 UTC
Vento 10 kt de norte

TAF: LPPT 201100Z 2012/2118 04008KT CAVOK BECMG 2015/2017 35012KT BECMG 2101/2104 04010KT BECMG 2114/2116 35010KT

Observações e previsões do tempo de mais de 4000 aeroportos (mensagens METAR e TAF).

As estações disponíveis são os pontos amarelos e vermelhos sobre o mapa.

Mova o rato sobre o mapa para ver o nome da estação.

Depois clique no ponto para visualizar as observações e previsões meteorológicas.

Para alterar o mapa : clique nos botões verdes com uma cruz preta para aumentar o zoom; no botão verde com uma pitada de zoom; ou nas setas verdes para mapas adjacentes.


METAR-TAF: